sensor_id;sensor_type;location;lat;lon;timestamp;P1;durP1;ratioP1;P2;durP2;ratioP2
1214;SDS011;597;51.998;5.880;2022-07-06T00:01:16;6.00;;;2.83;;
1214;SDS011;597;51.998;5.880;2022-07-06T00:03:42;7.77;;;3.20;;
1214;SDS011;597;51.998;5.880;2022-07-06T00:06:07;6.63;;;2.90;;
1214;SDS011;597;51.998;5.880;2022-07-06T00:08:32;6.47;;;2.93;;
1214;SDS011;597;51.998;5.880;2022-07-06T00:10:58;4.60;;;2.67;;
1214;SDS011;597;51.998;5.880;2022-07-06T00:13:23;8.03;;;5.10;;
1214;SDS011;597;51.998;5.880;2022-07-06T00:15:48;5.20;;;2.70;;
1214;SDS011;597;51.998;5.880;2022-07-06T00:18:13;5.73;;;3.07;;
1214;SDS011;597;51.998;5.880;2022-07-06T00:20:39;9.00;;;3.10;;
1214;SDS011;597;51.998;5.880;2022-07-06T00:23:04;6.30;;;3.20;;
1214;SDS011;597;51.998;5.880;2022-07-06T00:25:29;7.17;;;3.10;;
1214;SDS011;597;51.998;5.880;2022-07-06T00:27:54;6.23;;;3.30;;
1214;SDS011;597;51.998;5.880;2022-07-06T00:30:20;12.20;;;3.30;;
1214;SDS011;597;51.998;5.880;2022-07-06T00:32:45;5.90;;;3.50;;
1214;SDS011;597;51.998;5.880;2022-07-06T00:35:10;8.77;;;3.40;;
1214;SDS011;597;51.998;5.880;2022-07-06T00:37:35;4.70;;;3.20;;
1214;SDS011;597;51.998;5.880;2022-07-06T00:40:00;6.77;;;3.80;;
1214;SDS011;597;51.998;5.880;2022-07-06T00:42:26;7.17;;;3.60;;
1214;SDS011;597;51.998;5.880;2022-07-06T00:44:51;6.27;;;3.70;;
1214;SDS011;597;51.998;5.880;2022-07-06T00:47:16;8.20;;;3.80;;
1214;SDS011;597;51.998;5.880;2022-07-06T00:49:41;7.80;;;3.60;;
1214;SDS011;597;51.998;5.880;2022-07-06T00:52:26;5.37;;;3.53;;
1214;SDS011;597;51.998;5.880;2022-07-06T00:54:51;5.60;;;3.83;;
1214;SDS011;597;51.998;5.880;2022-07-06T00:57:17;6.70;;;3.80;;
1214;SDS011;597;51.998;5.880;2022-07-06T00:59:42;7.67;;;3.30;;
1214;SDS011;597;51.998;5.880;2022-07-06T01:02:08;8.00;;;3.80;;
1214;SDS011;597;51.998;5.880;2022-07-06T01:04:33;9.77;;;3.23;;
1214;SDS011;597;51.998;5.880;2022-07-06T01:06:58;4.50;;;3.63;;
1214;SDS011;597;51.998;5.880;2022-07-06T01:09:23;6.53;;;3.63;;
1214;SDS011;597;51.998;5.880;2022-07-06T01:11:49;7.83;;;3.83;;
1214;SDS011;597;51.998;5.880;2022-07-06T01:14:15;7.40;;;3.23;;
1214;SDS011;597;51.998;5.880;2022-07-06T01:16:41;8.67;;;3.43;;
1214;SDS011;597;51.998;5.880;2022-07-06T01:19:06;4.47;;;3.93;;
1214;SDS011;597;51.998;5.880;2022-07-06T01:21:31;13.20;;;4.37;;
1214;SDS011;597;51.998;5.880;2022-07-06T01:23:57;9.47;;;3.97;;
1214;SDS011;597;51.998;5.880;2022-07-06T01:26:22;9.33;;;4.17;;
1214;SDS011;597;51.998;5.880;2022-07-06T01:28:49;4.00;;;3.50;;
1214;SDS011;597;51.998;5.880;2022-07-06T01:31:17;7.50;;;4.53;;
1214;SDS011;597;51.998;5.880;2022-07-06T01:33:43;7.77;;;3.70;;
1214;SDS011;597;51.998;5.880;2022-07-06T01:36:08;8.17;;;5.73;;
1214;SDS011;597;51.998;5.880;2022-07-06T01:38:42;6.87;;;3.70;;
1214;SDS011;597;51.998;5.880;2022-07-06T01:41:07;7.27;;;4.30;;
1214;SDS011;597;51.998;5.880;2022-07-06T01:43:33;8.40;;;3.30;;
1214;SDS011;597;51.998;5.880;2022-07-06T01:45:58;5.13;;;3.10;;
1214;SDS011;597;51.998;5.880;2022-07-06T01:48:23;6.00;;;4.00;;
1214;SDS011;597;51.998;5.880;2022-07-06T01:50:48;9.30;;;3.57;;
1214;SDS011;597;51.998;5.880;2022-07-06T01:53:14;4.90;;;3.40;;
1214;SDS011;597;51.998;5.880;2022-07-06T01:55:39;5.37;;;3.10;;
1214;SDS011;597;51.998;5.880;2022-07-06T01:58:04;6.37;;;3.80;;
1214;SDS011;597;51.998;5.880;2022-07-06T02:00:29;5.73;;;3.03;;
1214;SDS011;597;51.998;5.880;2022-07-06T02:02:54;5.87;;;3.03;;
1214;SDS011;597;51.998;5.880;2022-07-06T02:05:20;17.33;;;3.80;;
1214;SDS011;597;51.998;5.880;2022-07-06T02:07:45;7.73;;;3.40;;
1214;SDS011;597;51.998;5.880;2022-07-06T02:10:10;8.73;;;3.23;;
1214;SDS011;597;51.998;5.880;2022-07-06T02:12:36;9.70;;;4.53;;
1214;SDS011;597;51.998;5.880;2022-07-06T02:15:01;4.00;;;3.07;;
1214;SDS011;597;51.998;5.880;2022-07-06T02:17:26;7.13;;;4.20;;
1214;SDS011;597;51.998;5.880;2022-07-06T02:19:51;5.97;;;3.70;;
1214;SDS011;597;51.998;5.880;2022-07-06T02:22:16;5.13;;;3.53;;
1214;SDS011;597;51.998;5.880;2022-07-06T02:24:41;3.93;;;3.20;;
1214;SDS011;597;51.998;5.880;2022-07-06T02:27:07;8.67;;;3.17;;
1214;SDS011;597;51.998;5.880;2022-07-06T02:29:32;4.33;;;3.07;;
1214;SDS011;597;51.998;5.880;2022-07-06T02:31:57;7.07;;;2.97;;
1214;SDS011;597;51.998;5.880;2022-07-06T02:34:22;5.87;;;3.10;;
1214;SDS011;597;51.998;5.880;2022-07-06T02:36:48;8.93;;;3.23;;
1214;SDS011;597;51.998;5.880;2022-07-06T02:39:13;3.60;;;2.80;;
1214;SDS011;597;51.998;5.880;2022-07-06T02:41:38;4.73;;;2.90;;
1214;SDS011;597;51.998;5.880;2022-07-06T02:44:03;6.10;;;2.67;;
1214;SDS011;597;51.998;5.880;2022-07-06T02:46:28;7.60;;;3.30;;
1214;SDS011;597;51.998;5.880;2022-07-06T02:48:54;7.53;;;3.03;;
1214;SDS011;597;51.998;5.880;2022-07-06T02:51:19;5.40;;;3.60;;
1214;SDS011;597;51.998;5.880;2022-07-06T02:53:44;3.57;;;3.03;;
1214;SDS011;597;51.998;5.880;2022-07-06T02:56:09;5.50;;;3.50;;
1214;SDS011;597;51.998;5.880;2022-07-06T02:58:34;7.97;;;2.57;;
1214;SDS011;597;51.998;5.880;2022-07-06T03:00:59;5.47;;;2.60;;
1214;SDS011;597;51.998;5.880;2022-07-06T03:03:25;9.90;;;3.87;;
1214;SDS011;597;51.998;5.880;2022-07-06T03:05:50;5.73;;;3.30;;
1214;SDS011;597;51.998;5.880;2022-07-06T03:08:15;5.40;;;3.10;;
1214;SDS011;597;51.998;5.880;2022-07-06T03:10:41;11.47;;;2.93;;
1214;SDS011;597;51.998;5.880;2022-07-06T03:13:06;5.57;;;2.63;;
1214;SDS011;597;51.998;5.880;2022-07-06T03:15:31;7.83;;;3.17;;
1214;SDS011;597;51.998;5.880;2022-07-06T03:17:56;11.07;;;2.77;;
1214;SDS011;597;51.998;5.880;2022-07-06T03:20:22;6.67;;;3.83;;
1214;SDS011;597;51.998;5.880;2022-07-06T03:22:47;5.43;;;3.30;;
1214;SDS011;597;51.998;5.880;2022-07-06T03:25:12;7.93;;;2.30;;
1214;SDS011;597;51.998;5.880;2022-07-06T03:27:37;5.30;;;3.70;;
1214;SDS011;597;51.998;5.880;2022-07-06T03:30:02;4.67;;;2.90;;
1214;SDS011;597;51.998;5.880;2022-07-06T03:32:28;3.97;;;2.50;;
1214;SDS011;597;51.998;5.880;2022-07-06T03:34:54;3.40;;;3.00;;
1214;SDS011;597;51.998;5.880;2022-07-06T03:37:19;4.00;;;2.50;;
1214;SDS011;597;51.998;5.880;2022-07-06T03:39:44;7.60;;;2.67;;
1214;SDS011;597;51.998;5.880;2022-07-06T03:42:09;4.60;;;2.93;;
1214;SDS011;597;51.998;5.880;2022-07-06T03:44:34;7.40;;;3.50;;
1214;SDS011;597;51.998;5.880;2022-07-06T03:47:00;3.70;;;2.60;;
1214;SDS011;597;51.998;5.880;2022-07-06T03:49:25;6.43;;;3.50;;
1214;SDS011;597;51.998;5.880;2022-07-06T03:51:52;4.50;;;2.80;;
1214;SDS011;597;51.998;5.880;2022-07-06T03:54:17;7.30;;;3.50;;
1214;SDS011;597;51.998;5.880;2022-07-06T03:56:43;6.00;;;3.27;;
1214;SDS011;597;51.998;5.880;2022-07-06T03:59:08;5.97;;;3.37;;
1214;SDS011;597;51.998;5.880;2022-07-06T04:01:33;3.63;;;2.80;;
1214;SDS011;597;51.998;5.880;2022-07-06T04:03:58;4.30;;;2.70;;
1214;SDS011;597;51.998;5.880;2022-07-06T04:06:24;3.80;;;2.50;;
1214;SDS011;597;51.998;5.880;2022-07-06T04:08:49;4.67;;;3.43;;
1214;SDS011;597;51.998;5.880;2022-07-06T04:11:14;6.00;;;3.77;;
1214;SDS011;597;51.998;5.880;2022-07-06T04:13:39;4.80;;;3.23;;
1214;SDS011;597;51.998;5.880;2022-07-06T04:16:05;6.23;;;3.20;;
1214;SDS011;597;51.998;5.880;2022-07-06T04:18:31;7.03;;;4.20;;
1214;SDS011;597;51.998;5.880;2022-07-06T04:20:56;7.13;;;3.63;;
1214;SDS011;597;51.998;5.880;2022-07-06T04:23:25;5.87;;;3.43;;
1214;SDS011;597;51.998;5.880;2022-07-06T04:25:50;6.73;;;3.80;;
1214;SDS011;597;51.998;5.880;2022-07-06T04:28:15;7.70;;;3.20;;
1214;SDS011;597;51.998;5.880;2022-07-06T04:30:40;6.33;;;3.30;;
1214;SDS011;597;51.998;5.880;2022-07-06T04:33:06;5.40;;;3.00;;
1214;SDS011;597;51.998;5.880;2022-07-06T04:35:31;5.87;;;3.20;;
1214;SDS011;597;51.998;5.880;2022-07-06T04:37:56;6.20;;;3.17;;
1214;SDS011;597;51.998;5.880;2022-07-06T04:40:22;5.43;;;3.30;;
1214;SDS011;597;51.998;5.880;2022-07-06T04:42:47;8.83;;;3.10;;
1214;SDS011;597;51.998;5.880;2022-07-06T04:45:12;4.60;;;2.77;;
1214;SDS011;597;51.998;5.880;2022-07-06T04:47:38;7.30;;;3.10;;
1214;SDS011;597;51.998;5.880;2022-07-06T04:50:03;4.10;;;2.83;;
1214;SDS011;597;51.998;5.880;2022-07-06T04:52:29;5.20;;;2.70;;
1214;SDS011;597;51.998;5.880;2022-07-06T04:54:54;4.63;;;2.90;;
1214;SDS011;597;51.998;5.880;2022-07-06T04:57:20;7.67;;;2.70;;
1214;SDS011;597;51.998;5.880;2022-07-06T04:59:45;4.63;;;2.93;;
1214;SDS011;597;51.998;5.880;2022-07-06T05:02:16;4.97;;;3.20;;
1214;SDS011;597;51.998;5.880;2022-07-06T05:04:41;4.93;;;2.73;;
1214;SDS011;597;51.998;5.880;2022-07-06T05:07:06;7.10;;;2.47;;
1214;SDS011;597;51.998;5.880;2022-07-06T05:09:32;5.27;;;3.00;;
1214;SDS011;597;51.998;5.880;2022-07-06T05:11:57;7.87;;;3.07;;
1214;SDS011;597;51.998;5.880;2022-07-06T05:14:22;6.20;;;2.80;;
1214;SDS011;597;51.998;5.880;2022-07-06T05:16:47;6.80;;;2.53;;
1214;SDS011;597;51.998;5.880;2022-07-06T05:19:12;6.30;;;2.97;;
1214;SDS011;597;51.998;5.880;2022-07-06T05:21:38;2.57;;;2.37;;
1214;SDS011;597;51.998;5.880;2022-07-06T05:24:03;6.50;;;2.70;;
1214;SDS011;597;51.998;5.880;2022-07-06T05:26:28;4.73;;;2.60;;
1214;SDS011;597;51.998;5.880;2022-07-06T05:28:54;3.97;;;2.03;;
1214;SDS011;597;51.998;5.880;2022-07-06T05:31:19;5.87;;;3.20;;
1214;SDS011;597;51.998;5.880;2022-07-06T05:33:44;4.30;;;2.70;;
1214;SDS011;597;51.998;5.880;2022-07-06T05:36:09;6.23;;;3.80;;
1214;SDS011;597;51.998;5.880;2022-07-06T05:38:35;6.50;;;2.57;;
1214;SDS011;597;51.998;5.880;2022-07-06T05:41:00;2.93;;;1.97;;
1214;SDS011;597;51.998;5.880;2022-07-06T05:43:25;3.83;;;2.10;;
1214;SDS011;597;51.998;5.880;2022-07-06T05:45:50;4.97;;;2.67;;
1214;SDS011;597;51.998;5.880;2022-07-06T05:48:16;2.77;;;2.33;;
1214;SDS011;597;51.998;5.880;2022-07-06T05:50:59;5.70;;;2.20;;
1214;SDS011;597;51.998;5.880;2022-07-06T05:53:25;3.30;;;2.07;;
1214;SDS011;597;51.998;5.880;2022-07-06T05:55:50;4.90;;;2.60;;
1214;SDS011;597;51.998;5.880;2022-07-06T05:58:15;8.93;;;2.27;;
1214;SDS011;597;51.998;5.880;2022-07-06T06:00:41;4.50;;;2.40;;
1214;SDS011;597;51.998;5.880;2022-07-06T06:03:06;2.17;;;1.87;;
1214;SDS011;597;51.998;5.880;2022-07-06T06:05:31;3.17;;;2.10;;
1214;SDS011;597;51.998;5.880;2022-07-06T06:07:57;6.20;;;2.30;;
1214;SDS011;597;51.998;5.880;2022-07-06T06:10:22;3.57;;;1.80;;
1214;SDS011;597;51.998;5.880;2022-07-06T06:12:48;9.43;;;3.40;;
1214;SDS011;597;51.998;5.880;2022-07-06T06:15:13;7.63;;;2.57;;
1214;SDS011;597;51.998;5.880;2022-07-06T06:17:39;7.70;;;1.97;;
1214;SDS011;597;51.998;5.880;2022-07-06T06:20:05;7.80;;;2.73;;
1214;SDS011;597;51.998;5.880;2022-07-06T06:22:32;7.33;;;2.50;;
1214;SDS011;597;51.998;5.880;2022-07-06T06:25:08;9.33;;;3.57;;
1214;SDS011;597;51.998;5.880;2022-07-06T06:27:34;6.67;;;2.27;;
1214;SDS011;597;51.998;5.880;2022-07-06T06:29:59;3.10;;;2.07;;
1214;SDS011;597;51.998;5.880;2022-07-06T06:32:24;2.73;;;1.90;;
1214;SDS011;597;51.998;5.880;2022-07-06T06:34:49;5.77;;;2.40;;
1214;SDS011;597;51.998;5.880;2022-07-06T06:37:14;3.13;;;1.90;;
1214;SDS011;597;51.998;5.880;2022-07-06T06:39:40;6.23;;;2.20;;
1214;SDS011;597;51.998;5.880;2022-07-06T06:42:05;7.10;;;2.00;;
1214;SDS011;597;51.998;5.880;2022-07-06T06:44:30;14.30;;;2.30;;
1214;SDS011;597;51.998;5.880;2022-07-06T06:46:55;1.63;;;1.50;;
1214;SDS011;597;51.998;5.880;2022-07-06T06:49:21;5.23;;;2.30;;
1214;SDS011;597;51.998;5.880;2022-07-06T06:51:46;3.97;;;2.53;;
1214;SDS011;597;51.998;5.880;2022-07-06T06:54:11;4.60;;;2.10;;
1214;SDS011;597;51.998;5.880;2022-07-06T06:56:36;3.20;;;2.00;;
1214;SDS011;597;51.998;5.880;2022-07-06T06:59:02;7.30;;;1.73;;
1214;SDS011;597;51.998;5.880;2022-07-06T07:01:27;7.83;;;2.00;;
1214;SDS011;597;51.998;5.880;2022-07-06T07:03:53;6.63;;;1.87;;
1214;SDS011;597;51.998;5.880;2022-07-06T07:06:19;7.77;;;1.60;;
1214;SDS011;597;51.998;5.880;2022-07-06T07:08:45;2.47;;;2.10;;
1214;SDS011;597;51.998;5.880;2022-07-06T07:11:10;2.30;;;1.90;;
1214;SDS011;597;51.998;5.880;2022-07-06T07:13:35;2.90;;;2.13;;
1214;SDS011;597;51.998;5.880;2022-07-06T07:16:00;9.50;;;2.63;;
1214;SDS011;597;51.998;5.880;2022-07-06T07:18:26;4.63;;;1.70;;
1214;SDS011;597;51.998;5.880;2022-07-06T07:20:51;6.67;;;1.67;;
1214;SDS011;597;51.998;5.880;2022-07-06T07:23:16;4.33;;;2.10;;
1214;SDS011;597;51.998;5.880;2022-07-06T07:25:41;2.63;;;1.60;;
1214;SDS011;597;51.998;5.880;2022-07-06T07:28:07;5.40;;;1.80;;
1214;SDS011;597;51.998;5.880;2022-07-06T07:30:32;2.57;;;1.70;;
1214;SDS011;597;51.998;5.880;2022-07-06T07:32:57;2.97;;;1.30;;
1214;SDS011;597;51.998;5.880;2022-07-06T07:35:25;3.43;;;1.60;;
1214;SDS011;597;51.998;5.880;2022-07-06T07:37:50;2.83;;;1.47;;
1214;SDS011;597;51.998;5.880;2022-07-06T07:40:15;7.50;;;2.40;;
1214;SDS011;597;51.998;5.880;2022-07-06T07:42:41;3.40;;;1.67;;
1214;SDS011;597;51.998;5.880;2022-07-06T07:45:06;4.50;;;1.70;;
1214;SDS011;597;51.998;5.880;2022-07-06T07:47:32;3.67;;;1.67;;
1214;SDS011;597;51.998;5.880;2022-07-06T07:49:57;3.20;;;1.57;;
1214;SDS011;597;51.998;5.880;2022-07-06T07:52:22;8.17;;;1.77;;
1214;SDS011;597;51.998;5.880;2022-07-06T07:54:47;4.43;;;1.70;;
1214;SDS011;597;51.998;5.880;2022-07-06T07:57:13;1.47;;;1.10;;
1214;SDS011;597;51.998;5.880;2022-07-06T07:59:38;3.70;;;1.70;;
1214;SDS011;597;51.998;5.880;2022-07-06T08:02:03;5.27;;;1.50;;
1214;SDS011;597;51.998;5.880;2022-07-06T08:04:28;5.80;;;1.40;;
1214;SDS011;597;51.998;5.880;2022-07-06T08:06:54;3.23;;;1.33;;
1214;SDS011;597;51.998;5.880;2022-07-06T08:09:20;1.87;;;1.13;;
1214;SDS011;597;51.998;5.880;2022-07-06T08:11:45;3.40;;;1.40;;
1214;SDS011;597;51.998;5.880;2022-07-06T08:14:10;4.73;;;1.23;;
1214;SDS011;597;51.998;5.880;2022-07-06T08:16:36;3.30;;;1.53;;
1214;SDS011;597;51.998;5.880;2022-07-06T08:19:01;4.20;;;1.17;;
1214;SDS011;597;51.998;5.880;2022-07-06T08:21:27;3.53;;;1.27;;
1214;SDS011;597;51.998;5.880;2022-07-06T08:23:52;2.40;;;1.23;;
1214;SDS011;597;51.998;5.880;2022-07-06T08:26:18;2.03;;;1.43;;
1214;SDS011;597;51.998;5.880;2022-07-06T08:28:43;2.37;;;1.30;;
1214;SDS011;597;51.998;5.880;2022-07-06T08:31:08;2.00;;;1.00;;
1214;SDS011;597;51.998;5.880;2022-07-06T08:33:34;2.23;;;1.30;;
1214;SDS011;597;51.998;5.880;2022-07-06T08:35:59;2.80;;;1.10;;
1214;SDS011;597;51.998;5.880;2022-07-06T08:38:24;4.13;;;1.30;;
1214;SDS011;597;51.998;5.880;2022-07-06T08:40:49;3.63;;;1.00;;
1214;SDS011;597;51.998;5.880;2022-07-06T08:43:15;1.70;;;1.17;;
1214;SDS011;597;51.998;5.880;2022-07-06T08:45:41;3.50;;;1.30;;
1214;SDS011;597;51.998;5.880;2022-07-06T08:48:09;4.93;;;1.27;;
1214;SDS011;597;51.998;5.880;2022-07-06T08:50:34;3.07;;;1.20;;
1214;SDS011;597;51.998;5.880;2022-07-06T08:52:59;1.73;;;1.40;;
1214;SDS011;597;51.998;5.880;2022-07-06T08:55:26;2.90;;;1.10;;
1214;SDS011;597;51.998;5.880;2022-07-06T08:57:52;3.10;;;1.07;;
1214;SDS011;597;51.998;5.880;2022-07-06T09:00:18;7.07;;;1.43;;
1214;SDS011;597;51.998;5.880;2022-07-06T09:02:43;2.97;;;1.10;;
1214;SDS011;597;51.998;5.880;2022-07-06T09:05:09;4.87;;;1.37;;
1214;SDS011;597;51.998;5.880;2022-07-06T09:07:37;3.83;;;1.27;;
1214;SDS011;597;51.998;5.880;2022-07-06T09:10:02;1.73;;;1.10;;
1214;SDS011;597;51.998;5.880;2022-07-06T09:12:28;2.50;;;1.10;;
1214;SDS011;597;51.998;5.880;2022-07-06T09:14:57;1.87;;;0.93;;
1214;SDS011;597;51.998;5.880;2022-07-06T09:17:26;1.83;;;1.43;;
1214;SDS011;597;51.998;5.880;2022-07-06T09:19:52;2.60;;;1.10;;
1214;SDS011;597;51.998;5.880;2022-07-06T09:22:27;2.07;;;1.03;;
1214;SDS011;597;51.998;5.880;2022-07-06T09:24:55;1.57;;;1.07;;
1214;SDS011;597;51.998;5.880;2022-07-06T09:27:25;1.73;;;1.00;;
1214;SDS011;597;51.998;5.880;2022-07-06T09:29:51;2.40;;;1.37;;
1214;SDS011;597;51.998;5.880;2022-07-06T09:32:19;1.50;;;1.20;;
1214;SDS011;597;51.998;5.880;2022-07-06T09:34:45;4.07;;;1.20;;
1214;SDS011;597;51.998;5.880;2022-07-06T09:37:10;4.60;;;1.70;;
1214;SDS011;597;51.998;5.880;2022-07-06T09:39:36;2.37;;;1.17;;
1214;SDS011;597;51.998;5.880;2022-07-06T09:42:03;1.60;;;0.93;;
1214;SDS011;597;51.998;5.880;2022-07-06T09:44:33;1.60;;;1.20;;
1214;SDS011;597;51.998;5.880;2022-07-06T09:47:00;4.60;;;1.20;;
1214;SDS011;597;51.998;5.880;2022-07-06T09:49:25;2.80;;;1.27;;
1214;SDS011;597;51.998;5.880;2022-07-06T09:51:52;1.83;;;0.97;;
1214;SDS011;597;51.998;5.880;2022-07-06T09:54:18;1.53;;;1.07;;
1214;SDS011;597;51.998;5.880;2022-07-06T09:56:46;3.23;;;0.97;;
1214;SDS011;597;51.998;5.880;2022-07-06T09:59:21;3.93;;;1.13;;
1214;SDS011;597;51.998;5.880;2022-07-06T10:01:47;3.77;;;0.97;;
1214;SDS011;597;51.998;5.880;2022-07-06T10:04:15;3.93;;;1.30;;
1214;SDS011;597;51.998;5.880;2022-07-06T10:06:43;1.77;;;0.90;;
1214;SDS011;597;51.998;5.880;2022-07-06T10:09:09;4.13;;;1.80;;
1214;SDS011;597;51.998;5.880;2022-07-06T10:11:37;4.80;;;1.20;;
1214;SDS011;597;51.998;5.880;2022-07-06T10:14:03;1.90;;;0.97;;
1214;SDS011;597;51.998;5.880;2022-07-06T10:16:29;2.47;;;1.17;;
1214;SDS011;597;51.998;5.880;2022-07-06T10:18:55;7.60;;;1.47;;
1214;SDS011;597;51.998;5.880;2022-07-06T10:21:23;2.87;;;1.30;;
1214;SDS011;597;51.998;5.880;2022-07-06T10:23:49;2.63;;;1.23;;
1214;SDS011;597;51.998;5.880;2022-07-06T10:26:15;1.73;;;0.93;;
1214;SDS011;597;51.998;5.880;2022-07-06T10:28:41;1.87;;;0.90;;
1214;SDS011;597;51.998;5.880;2022-07-06T10:31:06;1.90;;;1.00;;
1214;SDS011;597;51.998;5.880;2022-07-06T10:33:32;4.60;;;1.27;;
1214;SDS011;597;51.998;5.880;2022-07-06T10:35:58;3.93;;;1.20;;
1214;SDS011;597;51.998;5.880;2022-07-06T10:38:30;1.77;;;1.13;;
1214;SDS011;597;51.998;5.880;2022-07-06T10:40:58;1.30;;;0.70;;
1214;SDS011;597;51.998;5.880;2022-07-06T10:43:33;2.17;;;0.90;;
1214;SDS011;597;51.998;5.880;2022-07-06T10:45:59;10.70;;;1.37;;
1214;SDS011;597;51.998;5.880;2022-07-06T10:48:36;2.47;;;1.67;;
1214;SDS011;597;51.998;5.880;2022-07-06T10:51:02;1.10;;;0.73;;
1214;SDS011;597;51.998;5.880;2022-07-06T10:53:36;2.30;;;1.37;;
1214;SDS011;597;51.998;5.880;2022-07-06T10:56:03;2.03;;;1.10;;
1214;SDS011;597;51.998;5.880;2022-07-06T11:01:16;9.77;;;1.60;;
1214;SDS011;597;51.998;5.880;2022-07-06T11:13:55;1.83;;;1.20;;
1214;SDS011;597;51.998;5.880;2022-07-06T11:16:21;8.00;;;1.87;;
1214;SDS011;597;51.998;5.880;2022-07-06T11:18:49;1.43;;;1.17;;
1214;SDS011;597;51.998;5.880;2022-07-06T11:23:40;2.17;;;1.02;;
1214;SDS011;597;51.998;5.880;2022-07-06T11:26:05;2.97;;;1.40;;
1214;SDS011;597;51.998;5.880;2022-07-06T11:28:30;2.97;;;1.60;;
1214;SDS011;597;51.998;5.880;2022-07-06T11:30:56;3.03;;;1.43;;
1214;SDS011;597;51.998;5.880;2022-07-06T11:33:27;1.93;;;1.50;;
1214;SDS011;597;51.998;5.880;2022-07-06T11:35:55;4.63;;;1.70;;
1214;SDS011;597;51.998;5.880;2022-07-06T11:38:35;4.03;;;1.43;;
1214;SDS011;597;51.998;5.880;2022-07-06T11:41:00;5.13;;;2.30;;
1214;SDS011;597;51.998;5.880;2022-07-06T11:43:26;3.83;;;1.90;;
1214;SDS011;597;51.998;5.880;2022-07-06T11:45:51;3.20;;;1.70;;
1214;SDS011;597;51.998;5.880;2022-07-06T11:48:16;3.07;;;2.00;;
1214;SDS011;597;51.998;5.880;2022-07-06T11:50:41;3.43;;;1.43;;
1214;SDS011;597;51.998;5.880;2022-07-06T11:53:07;4.63;;;1.40;;
1214;SDS011;597;51.998;5.880;2022-07-06T11:55:32;2.93;;;1.87;;
1214;SDS011;597;51.998;5.880;2022-07-06T11:57:57;7.90;;;1.30;;
1214;SDS011;597;51.998;5.880;2022-07-06T12:00:24;6.10;;;1.43;;
1214;SDS011;597;51.998;5.880;2022-07-06T12:03:02;2.00;;;1.63;;
1214;SDS011;597;51.998;5.880;2022-07-06T12:05:30;1.97;;;1.33;;
1214;SDS011;597;51.998;5.880;2022-07-06T12:08:05;2.57;;;1.40;;
1214;SDS011;597;51.998;5.880;2022-07-06T12:10:31;3.40;;;1.60;;
1214;SDS011;597;51.998;5.880;2022-07-06T12:13:02;6.90;;;2.50;;
1214;SDS011;597;51.998;5.880;2022-07-06T12:15:27;3.37;;;2.03;;
1214;SDS011;597;51.998;5.880;2022-07-06T12:17:52;3.70;;;1.60;;
1214;SDS011;597;51.998;5.880;2022-07-06T12:20:17;2.40;;;1.43;;
1214;SDS011;597;51.998;5.880;2022-07-06T12:22:44;1.90;;;1.40;;
1214;SDS011;597;51.998;5.880;2022-07-06T12:25:09;4.13;;;1.70;;
1214;SDS011;597;51.998;5.880;2022-07-06T12:27:34;3.43;;;1.50;;
1214;SDS011;597;51.998;5.880;2022-07-06T12:30:10;2.30;;;1.20;;
1214;SDS011;597;51.998;5.880;2022-07-06T12:32:35;4.40;;;1.50;;
1214;SDS011;597;51.998;5.880;2022-07-06T12:35:02;4.37;;;1.70;;
1214;SDS011;597;51.998;5.880;2022-07-06T12:37:27;5.13;;;1.50;;
1214;SDS011;597;51.998;5.880;2022-07-06T12:39:52;6.27;;;1.70;;
1214;SDS011;597;51.998;5.880;2022-07-06T12:42:17;1.80;;;1.40;;
1214;SDS011;597;51.998;5.880;2022-07-06T12:44:43;3.87;;;1.67;;
1214;SDS011;597;51.998;5.880;2022-07-06T12:47:09;3.07;;;1.63;;
1214;SDS011;597;51.998;5.880;2022-07-06T12:49:35;7.63;;;1.83;;
1214;SDS011;597;51.998;5.880;2022-07-06T12:52:02;5.87;;;1.57;;
1214;SDS011;597;51.998;5.880;2022-07-06T12:54:32;3.80;;;1.70;;
1214;SDS011;597;51.998;5.880;2022-07-06T12:56:59;2.33;;;1.40;;
1214;SDS011;597;51.998;5.880;2022-07-06T12:59:24;2.53;;;1.83;;
1214;SDS011;597;51.998;5.880;2022-07-06T13:01:50;6.13;;;1.30;;
1214;SDS011;597;51.998;5.880;2022-07-06T13:04:16;6.40;;;2.23;;
1214;SDS011;597;51.998;5.880;2022-07-06T13:06:41;1.60;;;1.20;;
1214;SDS011;597;51.998;5.880;2022-07-06T13:09:07;1.70;;;1.30;;
1214;SDS011;597;51.998;5.880;2022-07-06T13:11:32;7.20;;;1.53;;
1214;SDS011;597;51.998;5.880;2022-07-06T13:13:58;3.03;;;1.40;;
1214;SDS011;597;51.998;5.880;2022-07-06T13:16:23;4.80;;;1.90;;
1214;SDS011;597;51.998;5.880;2022-07-06T13:18:55;2.60;;;1.47;;
1214;SDS011;597;51.998;5.880;2022-07-06T13:21:20;2.90;;;1.27;;
1214;SDS011;597;51.998;5.880;2022-07-06T13:23:45;1.57;;;1.10;;
1214;SDS011;597;51.998;5.880;2022-07-06T13:26:10;6.67;;;1.87;;
1214;SDS011;597;51.998;5.880;2022-07-06T13:28:36;5.50;;;1.20;;
1214;SDS011;597;51.998;5.880;2022-07-06T13:31:01;8.70;;;1.70;;
1214;SDS011;597;51.998;5.880;2022-07-06T13:33:26;3.17;;;1.40;;
1214;SDS011;597;51.998;5.880;2022-07-06T13:35:51;6.73;;;2.67;;
1214;SDS011;597;51.998;5.880;2022-07-06T13:38:17;7.33;;;1.47;;
1214;SDS011;597;51.998;5.880;2022-07-06T13:40:42;2.10;;;1.37;;
1214;SDS011;597;51.998;5.880;2022-07-06T13:43:07;4.30;;;1.50;;
1214;SDS011;597;51.998;5.880;2022-07-06T13:45:32;2.03;;;1.67;;
1214;SDS011;597;51.998;5.880;2022-07-06T13:47:57;3.57;;;1.30;;
1214;SDS011;597;51.998;5.880;2022-07-06T13:50:23;4.40;;;1.23;;
1214;SDS011;597;51.998;5.880;2022-07-06T13:52:50;2.53;;;1.30;;
1214;SDS011;597;51.998;5.880;2022-07-06T13:55:15;2.23;;;1.47;;
1214;SDS011;597;51.998;5.880;2022-07-06T13:57:40;2.27;;;1.27;;
1214;SDS011;597;51.998;5.880;2022-07-06T14:00:07;2.17;;;1.40;;
1214;SDS011;597;51.998;5.880;2022-07-06T14:02:32;3.10;;;1.33;;
1214;SDS011;597;51.998;5.880;2022-07-06T14:04:58;6.50;;;1.70;;
1214;SDS011;597;51.998;5.880;2022-07-06T14:07:23;1.63;;;1.23;;
1214;SDS011;597;51.998;5.880;2022-07-06T14:09:48;2.90;;;1.40;;
1214;SDS011;597;51.998;5.880;2022-07-06T14:12:16;2.27;;;1.30;;
1214;SDS011;597;51.998;5.880;2022-07-06T14:14:42;2.63;;;1.30;;
1214;SDS011;597;51.998;5.880;2022-07-06T14:17:07;4.17;;;1.77;;
1214;SDS011;597;51.998;5.880;2022-07-06T14:19:32;2.27;;;1.77;;
1214;SDS011;597;51.998;5.880;2022-07-06T14:21:57;6.90;;;1.30;;
1214;SDS011;597;51.998;5.880;2022-07-06T14:24:23;6.73;;;1.30;;
1214;SDS011;597;51.998;5.880;2022-07-06T14:26:48;2.73;;;1.57;;
1214;SDS011;597;51.998;5.880;2022-07-06T14:29:13;4.47;;;1.93;;
1214;SDS011;597;51.998;5.880;2022-07-06T14:31:38;2.70;;;1.87;;
1214;SDS011;597;51.998;5.880;2022-07-06T14:34:03;6.00;;;2.17;;
1214;SDS011;597;51.998;5.880;2022-07-06T14:36:29;2.90;;;1.60;;
1214;SDS011;597;51.998;5.880;2022-07-06T14:38:54;1.90;;;1.20;;
1214;SDS011;597;51.998;5.880;2022-07-06T14:41:19;2.10;;;1.30;;
1214;SDS011;597;51.998;5.880;2022-07-06T14:43:44;3.27;;;1.53;;
1214;SDS011;597;51.998;5.880;2022-07-06T14:46:09;2.10;;;1.50;;
1214;SDS011;597;51.998;5.880;2022-07-06T14:48:35;4.07;;;1.80;;
1214;SDS011;597;51.998;5.880;2022-07-06T14:51:00;6.10;;;1.70;;
1214;SDS011;597;51.998;5.880;2022-07-06T14:53:25;2.33;;;1.23;;
1214;SDS011;597;51.998;5.880;2022-07-06T14:55:50;2.50;;;1.37;;
1214;SDS011;597;51.998;5.880;2022-07-06T14:58:16;3.93;;;1.70;;
1214;SDS011;597;51.998;5.880;2022-07-06T15:00:43;12.40;;;1.93;;
1214;SDS011;597;51.998;5.880;2022-07-06T15:03:09;7.23;;;1.70;;
1214;SDS011;597;51.998;5.880;2022-07-06T15:05:34;5.57;;;1.80;;
1214;SDS011;597;51.998;5.880;2022-07-06T15:07:59;2.50;;;1.63;;
1214;SDS011;597;51.998;5.880;2022-07-06T15:10:24;4.47;;;1.57;;
1214;SDS011;597;51.998;5.880;2022-07-06T15:12:50;4.40;;;2.10;;
1214;SDS011;597;51.998;5.880;2022-07-06T15:15:15;3.30;;;1.90;;
1214;SDS011;597;51.998;5.880;2022-07-06T15:17:40;5.90;;;1.83;;
1214;SDS011;597;51.998;5.880;2022-07-06T15:20:06;2.03;;;1.37;;
1214;SDS011;597;51.998;5.880;2022-07-06T15:22:31;4.40;;;1.90;;
1214;SDS011;597;51.998;5.880;2022-07-06T15:24:58;4.63;;;2.37;;
1214;SDS011;597;51.998;5.880;2022-07-06T15:27:23;4.07;;;2.33;;
1214;SDS011;597;51.998;5.880;2022-07-06T15:29:48;4.80;;;2.27;;
1214;SDS011;597;51.998;5.880;2022-07-06T15:32:13;3.63;;;2.73;;
1214;SDS011;597;51.998;5.880;2022-07-06T15:34:39;7.23;;;2.40;;
1214;SDS011;597;51.998;5.880;2022-07-06T15:37:04;5.03;;;2.37;;